Brooks, Minnesota
Current Conditions -  °F | °C
As of 6:55 AM on Wednesday 26 Nov 2014 (Local Time) from KFSE Reporting Station
Overcast Overcast  
Wind Chill: -18°   Ceiling: 700
Heat Index:   Visibility: 10mi
Dew Point:   Wind: 15mph
Humidity: 92%   Direction: 350°N
Pressure: 30.25"   Gusts: NA
Location:  47.81°N, 96°W
Report Text: KFSE 261255Z AUTO 35013KT 10SM OVC007 M17/M18 A3025 RMK AO2
Loading
Personal Weather Stations






























Interactive Weather Map New forecast layout! Learn more

10-Day Weather Forecast

Advertisements
Track Severe Weather on mobile